Time;durP1;ratioP1;P1;durP2;ratioP2;P2;SDS_P1;SDS_P2;PMS_P1;PMS_P2;Temp;Humidity;BMP_temperature;BMP_pressure;BME280_temperature;BME280_humidity;BME280_pressure;Samples;Min_cycle;Max_cycle;Signal;HPM_P1;HPM_P2
2023/06/26 00:01:42;;;;;;;638.97;600.15;;;21.20;99.90;;;;;;5047769;28;20044;-74
2023/06/26 00:04:14;;;;;;;600.22;564.05;;;21.20;99.90;;;;;;5034375;28;20533;-74
2023/06/26 00:06:40;;;;;;;640.65;601.92;;;21.20;99.90;;;;;;5041694;28;20037;-74
2023/06/26 00:09:06;;;;;;;676.72;635.35;;;21.10;99.90;;;;;;5029000;28;20049;-74
2023/06/26 00:11:33;;;;;;;669.28;628.10;;;21.10;99.90;;;;;;5047164;28;20078;-73
2023/06/26 00:14:00;;;;;;;636.60;597.95;;;21.10;99.90;;;;;;5034783;28;20053;-73
2023/06/26 00:16:26;;;;;;;673.53;632.15;;;21.10;99.90;;;;;;5028086;28;20049;-74
2023/06/26 00:18:52;;;;;;;690.45;648.10;;;21.10;99.90;;;;;;5039567;28;20412;-74
2023/06/26 00:21:19;;;;;;;682.63;640.63;;;21.10;99.90;;;;;;5035535;28;20055;-73
2023/06/26 00:23:45;;;;;;;664.97;623.95;;;21.10;99.90;;;;;;5032549;28;20045;-73
2023/06/26 00:26:11;;;;;;;660.55;620.17;;;21.00;99.90;;;;;;5058751;28;20052;-74
2023/06/26 00:28:37;;;;;;;646.47;607.17;;;20.90;99.90;;;;;;5035639;28;20056;-74
2023/06/26 00:31:03;;;;;;;645.38;605.83;;;21.00;99.90;;;;;;5032652;28;20052;-74
2023/06/26 00:33:29;;;;;;;619.22;582.42;;;20.90;99.90;;;;;;5033491;28;20462;-73
2023/06/26 00:35:54;;;;;;;638.63;600.20;;;21.00;99.90;;;;;;5031563;28;20150;-74
2023/06/26 00:38:21;;;;;;;616.53;579.90;;;20.90;99.90;;;;;;5060399;28;20045;-73
2023/06/26 00:40:46;;;;;;;605.25;569.03;;;20.90;99.90;;;;;;5033965;28;20047;-74
2023/06/26 00:43:12;;;;;;;574.90;540.83;;;21.00;99.90;;;;;;5032521;28;20041;-74
2023/06/26 00:45:38;;;;;;;638.92;600.80;;;21.00;99.90;;;;;;5032159;28;20037;-74
2023/06/26 00:48:04;;;;;;;614.42;577.70;;;21.00;99.90;;;;;;5032030;28;20051;-74
2023/06/26 00:50:30;;;;;;;608.53;571.92;;;21.00;99.90;;;;;;5029253;28;20808;-74
2023/06/26 00:53:00;;;;;;;610.45;573.92;;;20.90;99.90;;;;;;5030752;28;20040;-74
2023/06/26 00:55:26;;;;;;;621.88;584.83;;;21.00;99.90;;;;;;5016030;28;20041;-74
2023/06/26 00:57:52;;;;;;;620.85;583.70;;;20.90;99.90;;;;;;5053133;28;20045;-74
2023/06/26 01:00:18;;;;;;;602.20;566.72;;;20.90;99.90;;;;;;5020045;28;20040;-74
2023/06/26 01:02:44;;;;;;;640.70;602.45;;;20.90;99.90;;;;;;5021952;28;20041;-73
2023/06/26 01:05:12;;;;;;;586.88;551.97;;;20.90;99.90;;;;;;5040310;28;20052;-74
2023/06/26 01:07:38;;;;;;;623.30;586.50;;;20.90;99.90;;;;;;5032876;28;20497;-74
2023/06/26 01:10:06;;;;;;;600.45;565.13;;;20.90;99.90;;;;;;5045504;28;20170;-74
2023/06/26 01:12:36;;;;;;;629.20;591.13;;;20.90;99.90;;;;;;5031657;28;20041;-74
2023/06/26 01:15:02;;;;;;;583.28;548.95;;;21.00;99.90;;;;;;5051635;28;20126;-74
2023/06/26 01:17:32;;;;;;;591.97;556.95;;;21.00;99.90;;;;;;5017026;28;20377;-74
2023/06/26 01:20:06;;;;;;;564.38;531.38;;;21.00;99.90;;;;;;5020993;28;20048;-74
2023/06/26 01:22:44;;;;;;;590.08;554.67;;;21.00;99.90;;;;;;5060587;28;20041;-74
2023/06/26 01:25:44;;;;;;;593.92;559.08;;;21.00;99.90;;;;;;5060207;28;20068;-74
2023/06/26 01:28:13;;;;;;;556.25;524.10;;;21.00;99.90;;;;;;5032053;28;20710;-74
2023/06/26 01:30:42;;;;;;;589.35;554.28;;;20.90;99.90;;;;;;5033209;28;20040;-74
2023/06/26 01:33:08;;;;;;;585.00;549.95;;;21.00;99.90;;;;;;5021814;28;20064;-75
2023/06/26 01:35:35;;;;;;;614.90;578.03;;;21.00;99.90;;;;;;5029942;28;20077;-75
2023/06/26 01:38:17;;;;;;;626.03;588.25;;;21.00;99.90;;;;;;5022189;28;20151;-74
2023/06/26 01:40:43;;;;;;;613.83;576.15;;;21.00;99.90;;;;;;5052142;28;20103;-75
2023/06/26 01:43:35;;;;;;;631.20;592.60;;;21.00;99.90;;;;;;5028052;28;20051;-74
2023/06/26 01:46:09;;;;;;;575.85;541.47;;;20.90;99.90;;;;;;5032629;28;20052;-74
2023/06/26 01:49:00;;;;;;;640.97;602.03;;;20.90;99.90;;;;;;5065645;28;20040;-74
2023/06/26 01:51:31;;;;;;;652.15;612.22;;;20.90;99.90;;;;;;5018879;28;20060;-74
2023/06/26 01:53:58;;;;;;;638.72;600.17;;;20.80;99.90;;;;;;5028764;28;20052;-74
2023/06/26 01:56:24;;;;;;;647.67;608.40;;;20.80;99.90;;;;;;5026394;28;20136;-74
2023/06/26 01:58:54;;;;;;;656.83;616.88;;;20.70;99.90;;;;;;5056554;28;20046;-74
2023/06/26 02:01:20;;;;;;;670.47;629.05;;;20.70;99.90;;;;;;5048675;28;20049;-74
2023/06/26 02:03:46;;;;;;;674.97;633.20;;;20.70;99.90;;;;;;5032613;28;20046;-74
2023/06/26 02:06:12;;;;;;;686.00;643.63;;;20.60;99.90;;;;;;5011560;28;20451;-74
2023/06/26 02:08:37;;;;;;;691.03;648.03;;;20.60;99.90;;;;;;5042034;28;20060;-74
2023/06/26 02:11:03;;;;;;;706.13;662.25;;;20.60;99.90;;;;;;5027305;28;20123;-74
2023/06/26 02:13:28;;;;;;;690.50;647.55;;;20.50;99.90;;;;;;5035714;28;20052;-74
2023/06/26 02:15:54;;;;;;;704.15;660.17;;;20.50;99.90;;;;;;5035201;28;20037;-74
2023/06/26 02:18:22;;;;;;;724.92;679.88;;;20.50;99.90;;;;;;5042205;28;20052;-75
2023/06/26 02:20:48;;;;;;;662.95;622.33;;;20.50;99.90;;;;;;5037228;28;20452;-74
2023/06/26 02:23:14;;;;;;;683.00;641.17;;;20.40;99.90;;;;;;5027420;28;20106;-74
2023/06/26 02:25:40;;;;;;;711.60;668.10;;;20.40;99.90;;;;;;5043733;28;20044;-74
2023/06/26 02:28:05;;;;;;;724.88;680.47;;;20.40;99.90;;;;;;5029798;28;20132;-74
2023/06/26 02:30:31;;;;;;;726.65;681.75;;;20.40;99.90;;;;;;5026665;28;20083;-73
2023/06/26 02:32:57;;;;;;;739.70;694.20;;;20.50;99.90;;;;;;5049355;28;20048;-74
2023/06/26 02:35:22;;;;;;;734.03;688.50;;;20.50;99.90;;;;;;5039266;28;20057;-74
2023/06/26 02:37:48;;;;;;;735.35;690.38;;;20.50;99.90;;;;;;5043611;28;20099;-74
2023/06/26 02:40:14;;;;;;;731.80;687.67;;;20.50;99.90;;;;;;5042830;28;20052;-74
2023/06/26 02:42:40;;;;;;;750.33;703.65;;;20.50;99.90;;;;;;5048296;28;20481;-74
2023/06/26 02:45:06;;;;;;;747.67;701.20;;;20.50;99.90;;;;;;5029814;28;20083;-74
2023/06/26 02:47:31;;;;;;;752.75;706.63;;;20.50;99.90;;;;;;5041837;28;20508;-74
2023/06/26 02:49:57;;;;;;;747.05;701.20;;;20.40;99.90;;;;;;5042017;28;20044;-74
2023/06/26 02:52:23;;;;;;;747.55;701.42;;;20.40;99.90;;;;;;5031372;28;20049;-74
2023/06/26 02:54:48;;;;;;;765.83;718.00;;;20.30;99.90;;;;;;5032920;28;20049;-74
2023/06/26 02:57:14;;;;;;;774.45;726.15;;;20.30;99.90;;;;;;5057418;28;20053;-74
2023/06/26 02:59:40;;;;;;;745.42;699.55;;;20.30;99.90;;;;;;5030307;28;20044;-74
2023/06/26 03:02:06;;;;;;;750.95;704.80;;;20.20;99.90;;;;;;5041019;28;20076;-74
2023/06/26 03:04:31;;;;;;;770.45;722.60;;;20.20;99.90;;;;;;5044514;28;20077;-74
2023/06/26 03:06:57;;;;;;;778.40;729.58;;;20.20;99.90;;;;;;5039889;28;20426;-74
2023/06/26 03:09:23;;;;;;;791.03;741.05;;;20.10;99.90;;;;;;5044383;28;20060;-74
2023/06/26 03:11:49;;;;;;;790.35;740.25;;;20.10;99.90;;;;;;5037832;28;20541;-74
2023/06/26 03:14:14;;;;;;;781.40;732.13;;;20.10;99.90;;;;;;5044362;28;20053;-74
2023/06/26 03:16:40;;;;;;;754.22;706.50;;;20.10;99.90;;;;;;5041569;28;20037;-74
2023/06/26 03:19:06;;;;;;;730.28;684.50;;;20.10;99.90;;;;;;5025070;28;20094;-74
2023/06/26 03:21:32;;;;;;;747.72;700.65;;;20.10;99.90;;;;;;5031203;28;20382;-74
2023/06/26 03:23:58;;;;;;;762.40;714.33;;;20.10;99.90;;;;;;5031952;28;20090;-74
2023/06/26 03:26:27;;;;;;;756.92;709.03;;;20.10;99.90;;;;;;5030894;28;20428;-74
2023/06/26 03:28:53;;;;;;;765.67;717.40;;;20.10;99.90;;;;;;5038933;28;20547;-74
2023/06/26 03:31:19;;;;;;;760.13;712.25;;;20.10;99.90;;;;;;5046473;28;20482;-74
2023/06/26 03:33:45;;;;;;;761.83;713.85;;;20.20;99.90;;;;;;5038783;28;20486;-74
2023/06/26 03:36:11;;;;;;;755.30;707.88;;;20.20;99.90;;;;;;5046990;28;20123;-74
2023/06/26 03:38:36;;;;;;;769.58;720.72;;;20.30;99.90;;;;;;5042980;28;20042;-74
2023/06/26 03:41:02;;;;;;;780.92;731.50;;;20.30;99.90;;;;;;5030271;28;20480;-74
2023/06/26 03:43:28;;;;;;;768.03;719.50;;;20.30;99.90;;;;;;5029144;28;20102;-74
2023/06/26 03:45:54;;;;;;;712.92;668.60;;;20.30;99.90;;;;;;5044190;28;20360;-74
2023/06/26 03:48:20;;;;;;;725.63;680.85;;;20.40;99.90;;;;;;5047470;28;20447;-74
2023/06/26 03:50:45;;;;;;;747.80;701.35;;;20.40;99.90;;;;;;5057295;28;20374;-74
2023/06/26 03:53:11;;;;;;;754.78;707.80;;;20.40;99.90;;;;;;5043676;28;20589;-74
2023/06/26 03:55:38;;;;;;;731.10;685.70;;;20.40;99.90;;;;;;5028862;28;20407;-74
2023/06/26 03:58:04;;;;;;;755.40;708.65;;;20.40;99.90;;;;;;5040734;28;20047;-73
2023/06/26 04:00:30;;;;;;;735.38;689.85;;;20.50;99.90;;;;;;5030057;28;20072;-74
2023/06/26 04:02:57;;;;;;;760.92;713.22;;;20.40;99.90;;;;;;5030654;28;20111;-74
2023/06/26 04:05:23;;;;;;;742.92;696.13;;;20.40;99.90;;;;;;5055685;28;20057;-74
2023/06/26 04:07:52;;;;;;;740.80;694.20;;;20.40;99.90;;;;;;5040070;28;20075;-74
2023/06/26 04:10:19;;;;;;;758.83;710.63;;;20.40;99.90;;;;;;5037842;28;20090;-74
2023/06/26 04:12:45;;;;;;;742.63;696.35;;;20.40;99.90;;;;;;5030872;28;20499;-74
2023/06/26 04:15:11;;;;;;;752.97;705.90;;;20.40;99.90;;;;;;5033919;28;20076;-74
2023/06/26 04:17:36;;;;;;;753.35;705.85;;;20.40;99.90;;;;;;5045242;28;20160;-74
2023/06/26 04:20:06;;;;;;;784.70;733.97;;;20.50;99.90;;;;;;5025140;28;20051;-74
2023/06/26 04:22:32;;;;;;;791.75;740.88;;;20.60;99.90;;;;;;5046344;28;20044;-74
2023/06/26 04:24:58;;;;;;;799.55;747.75;;;20.60;99.90;;;;;;5050497;28;20079;-74
2023/06/26 04:27:24;;;;;;;813.22;760.90;;;20.80;99.90;;;;;;5040789;28;20092;-74
2023/06/26 04:29:49;;;;;;;825.58;771.78;;;20.90;99.90;;;;;;5029326;28;20044;-74
2023/06/26 04:32:15;;;;;;;779.05;727.72;;;21.00;99.90;;;;;;5020346;28;20045;-74
2023/06/26 04:34:43;;;;;;;823.53;769.58;;;21.10;99.90;;;;;;5035553;28;20053;-74
2023/06/26 04:37:09;;;;;;;841.05;785.45;;;21.10;99.90;;;;;;5040667;28;20261;-74
2023/06/26 04:39:37;;;;;;;843.90;787.90;;;21.20;99.90;;;;;;5039895;28;20552;-74
2023/06/26 04:42:03;;;;;;;870.72;811.95;;;21.20;99.90;;;;;;5025565;28;20116;-74
2023/06/26 04:44:29;;;;;;;821.65;768.50;;;21.20;99.90;;;;;;5039398;28;20049;-74
2023/06/26 04:46:54;;;;;;;838.13;782.22;;;21.10;99.90;;;;;;5040399;28;20052;-74
2023/06/26 04:49:20;;;;;;;819.33;766.38;;;21.10;99.90;;;;;;5036488;28;20050;-74
2023/06/26 04:51:46;;;;;;;845.78;790.05;;;21.10;99.90;;;;;;5037283;28;20045;-74
2023/06/26 04:54:11;;;;;;;856.65;799.50;;;21.00;99.90;;;;;;5050684;28;20429;-73
2023/06/26 04:56:39;;;;;;;831.13;776.95;;;20.90;99.90;;;;;;5029995;28;20048;-73
2023/06/26 04:59:06;;;;;;;838.00;781.97;;;20.90;99.90;;;;;;5031185;28;20038;-73
2023/06/26 05:01:32;;;;;;;806.13;752.88;;;20.90;99.90;;;;;;5042258;28;20049;-73
2023/06/26 05:04:01;;;;;;;805.90;751.92;;;20.80;99.90;;;;;;5040881;28;20136;-75
2023/06/26 05:06:26;;;;;;;839.95;783.22;;;20.70;99.90;;;;;;5029337;28;20049;-72
2023/06/26 05:08:52;;;;;;;876.47;815.92;;;20.60;99.90;;;;;;5043607;28;20048;-73
2023/06/26 05:11:18;;;;;;;871.50;813.00;;;20.40;99.90;;;;;;5044393;28;20050;-73
2023/06/26 05:13:43;;;;;;;883.50;822.63;;;20.30;99.90;;;;;;5042709;28;20045;-74
2023/06/26 05:16:09;;;;;;;868.90;809.00;;;20.20;99.90;;;;;;5043986;28;20471;-74
2023/06/26 05:18:36;;;;;;;880.80;818.80;;;20.10;99.90;;;;;;5044221;28;20068;-73
2023/06/26 05:21:02;;;;;;;900.22;837.28;;;20.20;99.90;;;;;;5022977;28;20037;-74
2023/06/26 05:23:31;;;;;;;883.40;819.75;;;20.10;99.90;;;;;;5060034;28;20041;-73
2023/06/26 05:25:57;;;;;;;906.22;840.58;;;20.10;99.90;;;;;;5038227;28;20575;-73
2023/06/26 05:28:24;;;;;;;894.38;829.30;;;20.00;99.90;;;;;;5033599;28;20156;-72
2023/06/26 05:30:54;;;;;;;856.03;787.42;;;20.00;99.90;;;;;;5029667;28;20049;-73
2023/06/26 05:33:23;;;;;;;894.63;829.42;;;20.00;99.90;;;;;;5043473;28;20399;-72
2023/06/26 05:35:51;;;;;;;868.67;805.45;;;20.00;99.90;;;;;;5020571;28;20037;-73
2023/06/26 05:38:17;;;;;;;851.08;789.60;;;19.90;99.90;;;;;;5026102;28;20053;-72
2023/06/26 05:40:43;;;;;;;911.00;844.10;;;19.90;99.90;;;;;;5033433;28;20052;-74
2023/06/26 05:43:09;;;;;;;846.53;783.63;;;19.90;99.90;;;;;;5044531;28;20052;-75
2023/06/26 05:45:35;;;;;;;885.88;822.47;;;19.80;99.90;;;;;;5046406;28;20110;-73
2023/06/26 05:48:01;;;;;;;885.28;821.78;;;19.70;99.90;;;;;;5044389;28;20045;-74
2023/06/26 05:50:27;;;;;;;876.35;813.70;;;19.70;99.90;;;;;;5040718;28;20443;-72
2023/06/26 05:52:53;;;;;;;859.13;797.15;;;19.70;99.90;;;;;;5026335;28;20041;-73
2023/06/26 05:55:19;;;;;;;880.70;815.67;;;19.80;99.90;;;;;;5040954;28;20039;-73
2023/06/26 05:57:46;;;;;;;895.97;830.05;;;19.80;99.90;;;;;;5035676;28;20037;-73
2023/06/26 06:00:13;;;;;;;866.03;803.08;;;19.80;99.90;;;;;;5033278;28;20048;-73
2023/06/26 06:02:39;;;;;;;841.00;768.35;;;19.80;99.90;;;;;;5036115;28;20045;-74
2023/06/26 06:05:06;;;;;;;902.35;835.45;;;19.80;99.90;;;;;;5037734;28;20072;-72
2023/06/26 06:07:35;;;;;;;836.22;774.90;;;19.80;99.90;;;;;;5041013;28;20045;-73
2023/06/26 06:10:03;;;;;;;755.90;698.70;;;20.00;99.90;;;;;;5072685;28;20088;-72
2023/06/26 06:12:28;;;;;;;836.03;773.15;;;20.20;99.90;;;;;;5048224;28;20049;-73
2023/06/26 06:14:55;;;;;;;803.50;744.47;;;20.30;99.90;;;;;;5049316;28;20045;-73
2023/06/26 06:17:21;;;;;;;890.20;822.50;;;20.20;99.90;;;;;;5044981;28;20041;-72
2023/06/26 06:19:46;;;;;;;856.20;789.35;;;20.20;99.90;;;;;;5040028;28;20044;-73
2023/06/26 06:22:12;;;;;;;882.10;816.55;;;20.30;99.90;;;;;;5038363;28;20496;-74
2023/06/26 06:24:38;;;;;;;866.58;800.47;;;20.60;99.90;;;;;;5039431;28;20409;-71
2023/06/26 06:27:03;;;;;;;763.47;706.38;;;20.90;99.90;;;;;;5029956;28;20048;-72
2023/06/26 06:29:29;;;;;;;916.38;849.35;;;21.50;99.90;;;;;;5041510;28;20057;-73
2023/06/26 06:31:55;;;;;;;621.63;583.05;;;22.10;99.90;;;;;;5030142;28;20125;-74
2023/06/26 06:34:21;;;;;;;653.65;613.42;;;22.90;99.90;;;;;;5041682;28;20053;-73
2023/06/26 06:36:47;;;;;;;233.63;222.45;;;23.50;99.90;;;;;;5049182;28;20464;-74
2023/06/26 06:39:12;;;;;;;357.70;340.67;;;24.10;99.90;;;;;;5044326;28;20059;-74
2023/06/26 06:41:38;;;;;;;398.30;379.00;;;24.40;99.90;;;;;;5046593;28;20037;-73
2023/06/26 06:44:04;;;;;;;399.48;380.13;;;24.60;99.90;;;;;;5043711;28;20473;-73
2023/06/26 06:46:30;;;;;;;381.85;363.55;;;24.80;99.90;;;;;;5055111;28;20049;-73
2023/06/26 06:48:56;;;;;;;419.95;399.25;;;24.90;99.90;;;;;;5036442;28;20050;-73
2023/06/26 06:51:22;;;;;;;397.23;377.88;;;25.00;99.90;;;;;;5029603;28;20049;-72
2023/06/26 06:53:48;;;;;;;411.38;391.17;;;25.30;99.90;;;;;;5060701;28;20152;-73
2023/06/26 06:56:13;;;;;;;271.00;259.08;;;25.50;99.90;;;;;;5047238;28;20195;-73
2023/06/26 06:58:42;;;;;;;264.50;252.75;;;25.30;99.90;;;;;;5037800;28;20489;-73
2023/06/26 07:01:09;;;;;;;290.15;276.77;;;24.70;99.90;;;;;;5039428;28;20124;-73
2023/06/26 07:03:35;;;;;;;240.75;230.23;;;24.60;99.90;;;;;;5034371;28;20045;-74
2023/06/26 07:06:03;;;;;;;270.00;257.75;;;24.10;99.90;;;;;;5046430;28;20099;-74
2023/06/26 07:08:29;;;;;;;279.40;266.65;;;23.70;99.90;;;;;;5046213;28;20053;-75
2023/06/26 07:10:56;;;;;;;239.68;229.27;;;23.30;99.90;;;;;;5045863;28;20049;-73
2023/06/26 07:13:22;;;;;;;217.20;207.63;;;23.50;99.90;;;;;;5028470;28;20048;-75
2023/06/26 07:15:48;;;;;;;283.67;270.75;;;24.50;99.90;;;;;;5041002;28;20402;-72
2023/06/26 07:18:14;;;;;;;295.02;281.80;;;25.20;99.90;;;;;;5047461;28;20122;-73
2023/06/26 07:20:40;;;;;;;192.80;184.07;;;24.90;99.90;;;;;;5042248;28;20383;-73
2023/06/26 07:23:06;;;;;;;207.07;197.43;;;24.60;99.90;;;;;;5043369;28;20033;-73
2023/06/26 07:25:32;;;;;;;267.27;255.10;;;24.90;99.90;;;;;;5045439;28;20481;-75
2023/06/26 07:27:57;;;;;;;326.08;310.58;;;25.20;99.90;;;;;;5030590;28;20052;-73
2023/06/26 07:30:24;;;;;;;246.40;235.30;;;25.30;99.90;;;;;;5038818;28;20033;-73
2023/06/26 07:32:50;;;;;;;346.90;330.20;;;25.00;99.90;;;;;;5016105;28;20045;-73
2023/06/26 07:35:16;;;;;;;323.60;308.23;;;25.00;99.90;;;;;;5060140;28;20041;-72
2023/06/26 07:37:42;;;;;;;334.00;318.15;;;25.00;99.90;;;;;;5026026;28;20783;-72
2023/06/26 07:40:08;;;;;;;406.70;386.70;;;25.40;99.90;;;;;;5039823;28;20413;-73
2023/06/26 07:42:34;;;;;;;357.27;340.02;;;25.60;99.90;;;;;;5035597;28;20398;-73
2023/06/26 07:45:00;;;;;;;363.10;345.38;;;25.60;99.90;;;;;;5023788;28;20033;-72
2023/06/26 07:47:26;;;;;;;416.65;395.80;;;25.10;99.90;;;;;;5043495;28;20049;-72
2023/06/26 07:49:52;;;;;;;378.02;359.58;;;24.70;99.90;;;;;;5044465;28;20048;-73
2023/06/26 07:52:19;;;;;;;358.60;341.15;;;24.50;99.90;;;;;;5044316;28;20045;-73
2023/06/26 07:54:44;;;;;;;384.83;365.55;;;24.60;99.90;;;;;;5060914;28;20041;-74
2023/06/26 07:57:11;;;;;;;420.27;398.90;;;24.70;99.90;;;;;;5024618;28;20107;-75
2023/06/26 07:59:37;;;;;;;414.48;393.80;;;24.80;99.90;;;;;;5026800;28;20047;-72
2023/06/26 08:02:03;;;;;;;299.02;284.58;;;25.10;99.90;;;;;;5039090;28;20037;-73
2023/06/26 08:04:31;;;;;;;327.40;311.98;;;25.50;99.90;;;;;;5031224;28;20490;-73
2023/06/26 08:06:58;;;;;;;332.73;316.88;;;25.70;99.90;;;;;;5042838;28;20071;-73
2023/06/26 08:09:27;;;;;;;310.83;296.08;;;25.30;99.90;;;;;;5030005;28;20053;-74
2023/06/26 08:11:54;;;;;;;379.27;360.40;;;25.10;99.90;;;;;;5045103;28;20048;-73
2023/06/26 08:14:20;;;;;;;309.58;294.55;;;25.00;99.90;;;;;;5030513;28;20052;-74
2023/06/26 08:16:46;;;;;;;338.77;322.33;;;24.80;99.90;;;;;;5030723;28;20041;-72
2023/06/26 08:19:13;;;;;;;391.00;371.52;;;24.70;99.90;;;;;;5047254;28;20044;-73
2023/06/26 08:21:40;;;;;;;391.42;372.13;;;24.10;99.90;;;;;;5044044;28;20075;-73
2023/06/26 08:24:05;;;;;;;298.80;284.75;;;23.70;99.90;;;;;;5063426;28;20049;-72
2023/06/26 08:26:31;;;;;;;362.52;344.70;;;23.70;99.90;;;;;;5029178;28;20046;-75
2023/06/26 08:28:57;;;;;;;227.50;217.15;;;24.50;99.90;;;;;;5031461;28;20408;-74
2023/06/26 08:31:22;;;;;;;396.20;376.58;;;25.10;99.90;;;;;;5039584;28;20183;-73
2023/06/26 08:33:48;;;;;;;253.27;241.55;;;25.20;99.90;;;;;;5039256;28;20060;-72
2023/06/26 08:36:14;;;;;;;175.68;167.50;;;24.90;99.90;;;;;;5040751;28;20055;-74
2023/06/26 08:38:40;;;;;;;325.00;308.25;;;25.10;99.90;;;;;;5024372;28;20055;-74
2023/06/26 08:41:07;;;;;;;95.70;91.03;;;25.10;99.10;;;;;;5041967;28;20041;-73
2023/06/26 08:43:33;;;;;;;337.17;320.58;;;24.80;98.40;;;;;;5044303;28;20567;-73
2023/06/26 08:45:59;;;;;;;207.77;197.68;;;24.60;99.50;;;;;;5044827;28;20037;-74
2023/06/26 08:48:25;;;;;;;273.00;259.48;;;24.60;99.10;;;;;;5045407;28;20077;-73
2023/06/26 08:50:54;;;;;;;345.33;327.42;;;24.20;99.90;;;;;;5042766;28;20044;-73
2023/06/26 08:53:58;;;;;;;283.73;269.65;;;23.80;99.90;;;;;;5044084;28;20040;-73
2023/06/26 08:56:27;;;;;;;457.93;434.70;;;23.60;99.90;;;;;;5035002;28;20156;-72
2023/06/26 08:58:53;;;;;;;303.13;288.45;;;23.90;99.90;;;;;;5039992;28;20049;-73
2023/06/26 09:01:19;;;;;;;311.02;296.13;;;24.10;99.90;;;;;;5043536;28;20052;-74
2023/06/26 09:03:45;;;;;;;230.07;219.63;;;24.20;99.90;;;;;;5044521;28;20060;-73
2023/06/26 09:06:11;;;;;;;284.92;271.75;;;24.10;99.90;;;;;;5040609;28;20053;-72
2023/06/26 09:08:36;;;;;;;295.30;281.05;;;23.90;99.80;;;;;;5042214;28;20110;-73
2023/06/26 09:11:02;;;;;;;242.35;230.50;;;23.70;99.90;;;;;;5043801;28;20049;-73
2023/06/26 09:13:31;;;;;;;337.42;321.42;;;23.80;99.90;;;;;;5044932;28;20041;-73
2023/06/26 09:15:57;;;;;;;465.05;441.08;;;23.60;99.90;;;;;;5043160;28;20131;-74
2023/06/26 09:18:23;;;;;;;219.45;208.50;;;23.60;99.90;;;;;;5028128;28;20475;-73
2023/06/26 09:20:50;;;;;;;281.65;267.48;;;24.20;99.90;;;;;;5022932;28;20472;-73
2023/06/26 09:23:16;;;;;;;338.52;321.63;;;24.40;99.60;;;;;;5040516;28;20041;-73
2023/06/26 09:25:42;;;;;;;133.07;127.07;;;24.10;99.00;;;;;;5039975;28;20228;-73
2023/06/26 09:28:08;;;;;;;241.07;229.57;;;23.60;99.00;;;;;;5040192;28;20080;-73
2023/06/26 09:30:35;;;;;;;300.98;286.33;;;23.40;99.60;;;;;;5044649;28;20075;-74
2023/06/26 09:33:21;;;;;;;409.05;388.95;;;23.60;99.90;;;;;;5043564;28;20040;-74
2023/06/26 09:35:47;;;;;;;158.55;150.93;;;23.60;99.90;;;;;;5044191;28;20071;-73
2023/06/26 09:38:14;;;;;;;431.17;408.90;;;23.80;99.90;;;;;;5020786;28;20045;-73
2023/06/26 09:40:40;;;;;;;81.45;77.40;;;24.30;99.90;;;;;;5031813;28;20482;-74
2023/06/26 09:43:07;;;;;;;64.15;60.67;;;24.60;99.90;;;;;;5031649;28;20048;-74
2023/06/26 09:45:36;;;;;;;210.10;200.23;;;24.50;98.40;;;;;;5020872;28;20045;-73
2023/06/26 09:48:05;;;;;;;264.50;251.60;;;24.10;97.20;;;;;;5035566;28;20717;-74
2023/06/26 09:50:37;;;;;;;136.50;130.02;;;23.90;97.80;;;;;;5037261;28;20049;-74
2023/06/26 09:53:14;;;;;;;211.25;200.52;;;23.80;97.80;;;;;;5040916;28;20127;-74
2023/06/26 09:55:43;;;;;;;61.38;58.40;;;23.60;99.60;;;;;;5042136;28;20140;-74
2023/06/26 09:58:14;;;;;;;109.93;104.70;;;23.80;98.70;;;;;;5042358;28;20390;-74
2023/06/26 10:00:40;;;;;;;134.70;128.48;;;24.00;99.80;;;;;;5044085;28;20048;-74
2023/06/26 10:03:06;;;;;;;233.10;222.00;;;24.20;97.40;;;;;;5022921;28;20095;-74
2023/06/26 10:05:32;;;;;;;348.42;330.42;;;24.10;97.60;;;;;;5048857;28;20053;-73
2023/06/26 10:07:58;;;;;;;245.93;233.48;;;24.40;97.50;;;;;;5041527;28;20144;-74
2023/06/26 10:10:25;;;;;;;189.93;180.65;;;24.50;97.40;;;;;;5025211;28;20053;-75
2023/06/26 10:12:59;;;;;;;91.43;87.10;;;24.60;96.70;;;;;;5057400;28;20516;-75
2023/06/26 10:15:26;;;;;;;88.05;83.65;;;24.70;97.00;;;;;;5067999;28;20493;-73
2023/06/26 10:17:56;;;;;;;192.35;183.20;;;24.70;95.50;;;;;;5038712;28;20417;-73
2023/06/26 10:20:22;;;;;;;196.77;187.48;;;24.30;96.00;;;;;;5041364;28;20491;-72
2023/06/26 10:22:48;;;;;;;250.23;238.23;;;24.30;95.60;;;;;;5026650;28;20033;-74
2023/06/26 10:25:19;;;;;;;264.40;251.60;;;24.20;94.80;;;;;;5038056;28;20048;-73
2023/06/26 10:27:54;;;;;;;357.08;338.73;;;24.20;95.50;;;;;;5039857;28;20053;-74
2023/06/26 10:30:25;;;;;;;382.88;364.13;;;24.20;97.10;;;;;;5014193;28;20514;-73
2023/06/26 10:32:51;;;;;;;155.98;148.90;;;24.50;96.70;;;;;;5027470;28;20374;-74
2023/06/26 10:35:17;;;;;;;384.63;364.98;;;24.90;95.90;;;;;;5042307;28;20052;-74
2023/06/26 10:37:48;;;;;;;344.00;327.30;;;25.00;92.80;;;;;;5078831;28;20402;-74
2023/06/26 10:40:21;;;;;;;419.73;398.65;;;25.00;92.20;;;;;;5040284;28;20068;-74
2023/06/26 10:42:47;;;;;;;166.90;158.98;;;25.00;93.20;;;;;;5038420;28;20040;-74
2023/06/26 10:45:19;;;;;;;316.85;301.05;;;25.10;93.70;;;;;;5045982;28;20066;-72
2023/06/26 10:47:51;;;;;;;258.05;245.70;;;25.10;93.30;;;;;;5048273;28;20507;-75
2023/06/26 10:50:22;;;;;;;405.98;385.02;;;25.20;94.90;;;;;;5038188;28;20564;-74
2023/06/26 10:53:13;;;;;;;308.55;292.98;;;25.10;92.50;;;;;;5043397;28;20045;-73
2023/06/26 10:55:47;;;;;;;439.25;416.75;;;25.00;92.20;;;;;;5037824;28;20058;-74
2023/06/26 10:58:31;;;;;;;447.73;424.23;;;24.70;91.30;;;;;;5018651;28;20052;-73
2023/06/26 11:01:14;;;;;;;215.27;204.68;;;24.20;91.30;;;;;;5039767;28;20037;-75
2023/06/26 11:03:43;;;;;;;383.20;362.88;;;23.90;94.00;;;;;;5040621;28;20378;-73
2023/06/26 11:06:20;;;;;;;324.35;308.58;;;24.20;93.00;;;;;;5029012;28;20492;-73
2023/06/26 11:08:53;;;;;;;477.98;453.15;;;24.50;93.10;;;;;;5040372;28;20123;-74
2023/06/26 11:11:19;;;;;;;584.15;542.80;;;24.70;91.90;;;;;;5062767;28;20485;-72
2023/06/26 11:13:46;;;;;;;314.63;298.83;;;24.70;90.70;;;;;;5026558;28;20083;-73
2023/06/26 11:16:14;;;;;;;305.83;290.58;;;24.60;91.70;;;;;;5041498;28;20056;-74
2023/06/26 11:18:40;;;;;;;435.77;413.35;;;24.50;92.30;;;;;;5032313;28;20075;-73
2023/06/26 11:21:11;;;;;;;475.00;447.60;;;24.30;91.90;;;;;;5028218;28;20041;-75
2023/06/26 11:23:37;;;;;;;388.50;368.55;;;24.40;92.00;;;;;;5042439;28;20043;-73
2023/06/26 11:26:21;;;;;;;384.52;364.50;;;24.50;92.00;;;;;;5026143;28;20114;-74
2023/06/26 11:28:51;;;;;;;393.83;373.77;;;24.40;90.60;;;;;;5061358;28;20057;-75
2023/06/26 11:31:33;;;;;;;271.10;258.15;;;24.00;91.70;;;;;;5034467;28;20053;-73
2023/06/26 11:34:01;;;;;;;391.73;370.90;;;23.60;92.10;;;;;;5053084;28;20779;-74
2023/06/26 11:36:27;;;;;;;289.95;274.98;;;23.80;92.70;;;;;;5041460;28;20643;-72
2023/06/26 11:38:55;;;;;;;279.55;266.80;;;24.10;90.30;;;;;;5026843;28;20089;-73
2023/06/26 11:41:21;;;;;;;299.35;282.65;;;24.30;88.90;;;;;;5032858;28;20128;-73
2023/06/26 11:43:47;;;;;;;341.30;324.70;;;24.50;88.10;;;;;;5034134;28;20619;-73
2023/06/26 11:46:13;;;;;;;334.98;318.95;;;24.70;88.00;;;;;;5035273;28;20044;-73
2023/06/26 11:48:39;;;;;;;290.52;276.42;;;24.90;87.60;;;;;;5026383;28;20045;-74
2023/06/26 11:51:05;;;;;;;387.52;368.40;;;25.10;88.80;;;;;;5030070;28;20106;-74
2023/06/26 11:53:31;;;;;;;220.23;210.13;;;25.40;87.00;;;;;;5045266;28;20044;-73
2023/06/26 11:55:56;;;;;;;308.85;294.02;;;25.60;88.70;;;;;;5043827;28;20107;-74
2023/06/26 11:58:22;;;;;;;400.73;378.02;;;25.70;83.20;;;;;;5030241;28;20048;-74
2023/06/26 12:00:48;;;;;;;305.20;290.65;;;25.70;81.80;;;;;;5041930;28;20390;-75
2023/06/26 12:03:15;;;;;;;155.40;148.00;;;25.70;82.80;;;;;;5024854;28;20056;-73
2023/06/26 12:05:41;;;;;;;187.38;178.20;;;25.50;79.10;;;;;;5038457;28;20045;-75
2023/06/26 12:08:07;;;;;;;241.32;229.95;;;25.20;79.40;;;;;;5046234;28;20093;-73
2023/06/26 12:10:33;;;;;;;235.82;225.07;;;25.00;80.50;;;;;;5050658;28;20925;-74